Time;durP1;ratioP1;P1;durP2;ratioP2;P2;SDS_P1;SDS_P2;PMS_P1;PMS_P2;Temp;Humidity;BMP_temperature;BMP_pressure;BME280_temperature;BME280_humidity;BME280_pressure;Samples;Min_cycle;Max_cycle;Signal;HPM_P1;HPM_P2
2022/04/08 00:01:42;;;;;;;0.22;0.22;;;5.40;99.90;;;;;;5107916;27;20047;-88
2022/04/08 00:04:08;;;;;;;0.20;0.20;;;5.40;99.90;;;;;;5110729;27;20043;-88
2022/04/08 00:06:34;;;;;;;0.30;0.30;;;5.40;99.90;;;;;;5118036;27;20099;-88
2022/04/08 00:09:00;;;;;;;0.20;0.20;;;5.40;99.90;;;;;;5135519;27;20559;-88
2022/04/08 00:11:25;;;;;;;0.20;0.20;;;5.30;99.90;;;;;;5135370;27;20038;-88
2022/04/08 00:13:53;;;;;;;0.30;0.30;;;5.30;99.90;;;;;;5099796;27;20064;-86
2022/04/08 00:16:20;;;;;;;0.20;0.20;;;5.30;99.90;;;;;;5101308;27;20181;-87
2022/04/08 00:18:47;;;;;;;0.30;0.30;;;5.30;99.90;;;;;;5118631;27;20043;-88
2022/04/08 00:21:13;;;;;;;0.20;0.20;;;5.20;99.90;;;;;;5117552;27;20042;-84
2022/04/08 00:23:39;;;;;;;0.20;0.20;;;6.30;99.90;;;;;;5134738;27;20092;-87
2022/04/08 00:26:05;;;;;;;0.30;0.30;;;6.00;99.90;;;;;;5118492;27;20086;-88
2022/04/08 00:28:30;;;;;;;0.30;0.30;;;5.60;99.90;;;;;;5116609;27;20093;-88
2022/04/08 00:30:57;;;;;;;0.30;0.30;;;5.10;99.90;;;;;;5118350;27;20043;-88
2022/04/08 00:33:22;;;;;;;0.30;0.30;;;5.10;99.90;;;;;;5134648;27;20047;-88
2022/04/08 00:35:48;;;;;;;0.30;0.30;;;5.30;99.90;;;;;;5134993;27;20441;-87
2022/04/08 00:38:14;;;;;;;0.30;0.30;;;5.10;99.90;;;;;;5100578;27;20042;-85
2022/04/08 00:40:39;;;;;;;0.30;0.30;;;5.40;99.90;;;;;;5131350;27;20050;-87
2022/04/08 00:43:16;;;;;;;0.30;0.30;;;5.10;99.90;;;;;;5130160;27;20099;-86
2022/04/08 00:45:43;;;;;;;0.20;0.20;;;5.20;99.90;;;;;;5143164;27;20544;-87
2022/04/08 00:48:09;;;;;;;0.20;0.20;;;5.50;99.90;;;;;;5134234;27;20043;-87
2022/04/08 00:50:39;;;;;;;0.30;0.30;;;5.40;99.90;;;;;;5133202;27;20056;-87
2022/04/08 00:53:06;;;;;;;0.20;0.20;;;5.00;99.90;;;;;;5117879;27;20042;-88
2022/04/08 00:55:37;;;;;;;0.30;0.30;;;5.00;99.90;;;;;;5134089;27;20050;-87
2022/04/08 00:58:03;;;;;;;0.22;0.22;;;5.90;99.90;;;;;;5116376;27;20414;-87
2022/04/08 01:00:34;;;;;;;0.20;0.20;;;5.00;99.90;;;;;;5134378;27;20053;-88
2022/04/08 01:03:00;;;;;;;0.20;0.20;;;5.30;99.90;;;;;;5117850;27;20107;-88
2022/04/08 01:05:26;;;;;;;0.25;0.25;;;5.00;99.90;;;;;;5100343;27;20046;-89
2022/04/08 01:07:54;;;;;;;0.20;0.20;;;5.00;99.90;;;;;;5134902;27;20046;-88
2022/04/08 01:10:20;;;;;;;0.30;0.30;;;5.60;99.90;;;;;;5133985;27;20054;-88
2022/04/08 01:12:47;;;;;;;0.30;0.30;;;5.90;99.90;;;;;;5132298;27;20037;-86
2022/04/08 01:15:14;;;;;;;0.30;0.30;;;4.80;99.90;;;;;;5117400;27;20047;-86
2022/04/08 01:17:39;;;;;;;0.30;0.30;;;4.70;99.90;;;;;;5117102;27;20491;-88
2022/04/08 01:20:06;;;;;;;0.30;0.30;;;5.50;99.90;;;;;;5116844;27;20054;-87
2022/04/08 01:22:32;;;;;;;0.30;0.30;;;4.60;99.90;;;;;;5133747;27;20065;-87
2022/04/08 01:25:03;;;;;;;0.30;0.30;;;4.60;99.90;;;;;;5117506;27;20074;-88
2022/04/08 01:27:30;;;;;;;0.25;0.25;;;4.60;99.90;;;;;;5115106;27;20046;-87
2022/04/08 01:29:56;;;;;;;0.30;0.30;;;5.00;99.90;;;;;;5117192;27;20094;-89
2022/04/08 01:32:22;;;;;;;;;;;4.70;99.90;;;;;;5134094;27;20047;-86
2022/04/08 01:34:53;;;;;;;0.28;0.28;;;4.70;99.90;;;;;;5133456;27;19977;-87
2022/04/08 01:37:19;;;;;;;0.20;0.20;;;4.50;99.90;;;;;;5083634;27;20043;-85
2022/04/08 01:39:45;;;;;;;0.20;0.20;;;4.40;99.90;;;;;;5133974;27;20050;-87
2022/04/08 01:42:11;;;;;;;0.30;0.30;;;4.40;99.90;;;;;;5115357;27;20262;-86
2022/04/08 01:44:37;;;;;;;0.30;0.30;;;4.60;99.90;;;;;;5133219;27;20043;-87
2022/04/08 01:47:03;;;;;;;0.28;0.28;;;5.70;99.90;;;;;;5117202;27;20046;-88
2022/04/08 01:49:29;;;;;;;;;;;4.20;99.90;;;;;;5133913;27;20566;-88
2022/04/08 01:51:55;;;;;;;0.20;0.20;;;4.50;99.90;;;;;;5133338;27;19930;-87
2022/04/08 01:54:21;;;;;;;0.30;0.30;;;4.90;99.90;;;;;;5131491;27;20046;-86
2022/04/08 01:56:46;;;;;;;0.30;0.30;;;4.70;99.90;;;;;;5132655;27;20622;-89
2022/04/08 01:59:12;;;;;;;0.22;0.22;;;4.20;99.90;;;;;;5111899;27;20167;-87
2022/04/08 02:01:38;;;;;;;0.20;0.20;;;3.90;99.90;;;;;;5095009;27;20046;-87
2022/04/08 02:04:04;;;;;;;0.30;0.30;;;4.70;99.90;;;;;;5096300;27;20381;-88
2022/04/08 02:06:30;;;;;;;0.30;0.30;;;3.90;99.90;;;;;;5095015;28;20055;-87
2022/04/08 02:08:57;;;;;;;0.30;0.30;;;3.80;99.90;;;;;;5112700;28;20047;-87
2022/04/08 02:11:23;;;;;;;0.20;0.20;;;3.80;99.90;;;;;;5115490;27;20049;-86
2022/04/08 02:13:50;;;;;;;0.30;0.30;;;3.70;99.90;;;;;;5131171;27;20062;-88
2022/04/08 02:16:16;;;;;;;0.30;0.30;;;5.00;99.90;;;;;;5115961;27;20038;-88
2022/04/08 02:18:42;;;;;;;0.30;0.30;;;4.90;99.90;;;;;;5116048;27;20054;-86
2022/04/08 02:21:09;;;;;;;0.30;0.30;;;3.60;99.90;;;;;;5115953;27;20046;-87
2022/04/08 02:23:35;;;;;;;0.30;0.30;;;3.50;99.90;;;;;;5132683;27;20086;-88
2022/04/08 02:26:01;;;;;;;;;;;3.40;99.90;;;;;;5133911;27;20064;-87
2022/04/08 02:28:27;;;;;;;0.30;0.30;;;3.30;99.90;;;;;;5114383;27;19923;-87
2022/04/08 02:30:54;;;;;;;0.30;0.30;;;3.60;99.90;;;;;;5133238;27;20042;-87
2022/04/08 02:33:20;;;;;;;0.30;0.30;;;3.20;99.90;;;;;;5095562;28;20046;-86
2022/04/08 02:35:46;;;;;;;0.30;0.30;;;3.30;99.90;;;;;;5095056;28;20480;-88
2022/04/08 02:38:11;;;;;;;0.30;0.30;;;3.80;99.90;;;;;;5121903;27;20515;-88
2022/04/08 02:40:38;;;;;;;0.30;0.30;;;3.60;99.90;;;;;;5115668;27;20740;-88
2022/04/08 02:43:04;;;;;;;0.30;0.30;;;4.00;99.90;;;;;;5111361;28;20051;-87
2022/04/08 02:45:29;;;;;;;0.30;0.30;;;2.90;99.90;;;;;;5112379;28;20167;-87
2022/04/08 02:47:55;;;;;;;0.30;0.30;;;2.80;99.90;;;;;;5095816;28;20762;-87
2022/04/08 02:50:21;;;;;;;0.30;0.30;;;3.40;99.90;;;;;;5095398;28;20065;-87
2022/04/08 02:52:46;;;;;;;0.30;0.30;;;2.70;99.90;;;;;;5111963;27;20039;-88
2022/04/08 02:55:12;;;;;;;0.30;0.30;;;3.60;99.90;;;;;;5098509;27;20050;-88
2022/04/08 02:57:46;;;;;;;0.30;0.30;;;2.80;99.90;;;;;;5117452;27;20046;-87
2022/04/08 03:00:16;;;;;;;0.30;0.30;;;2.90;99.90;;;;;;5137211;27;20062;-87
2022/04/08 03:02:46;;;;;;;0.30;0.30;;;2.90;99.90;;;;;;5119341;27;20722;-87
2022/04/08 03:05:12;;;;;;;0.30;0.30;;;3.00;99.90;;;;;;5102526;27;20483;-87
2022/04/08 03:07:38;;;;;;;;;;;3.60;99.90;;;;;;5119383;27;20051;-88
2022/04/08 03:10:06;;;;;;;0.30;0.30;;;3.90;99.90;;;;;;5119902;27;19926;-87
2022/04/08 03:12:32;;;;;;;0.30;0.30;;;3.30;99.90;;;;;;5117263;27;20979;-88
2022/04/08 03:14:59;;;;;;;0.32;0.32;;;4.30;99.90;;;;;;5102934;27;20098;-88
2022/04/08 03:17:25;;;;;;;0.30;0.30;;;3.30;99.90;;;;;;5137013;27;20047;-85
2022/04/08 03:19:51;;;;;;;0.30;0.30;;;3.20;99.90;;;;;;5118841;27;20064;-88
2022/04/08 03:22:20;;;;;;;0.30;0.30;;;4.20;99.90;;;;;;5119781;27;20054;-88
2022/04/08 03:24:51;;;;;;;0.30;0.30;;;3.30;99.90;;;;;;5102887;27;20047;-89
2022/04/08 03:27:17;;;;;;;0.30;0.30;;;3.80;99.90;;;;;;5118894;27;20048;-87
2022/04/08 03:29:42;;;;;;;;;;;4.30;99.90;;;;;;5119170;27;20104;-88
2022/04/08 03:32:09;;;;;;;0.30;0.30;;;3.10;99.90;;;;;;5137356;27;19939;-89
2022/04/08 03:34:35;;;;;;;0.30;0.30;;;3.00;99.90;;;;;;5136590;27;20372;-88
2022/04/08 03:37:00;;;;;;;0.30;0.30;;;2.90;99.90;;;;;;5136695;27;20045;-89
2022/04/08 03:39:26;;;;;;;0.32;0.32;;;4.10;99.90;;;;;;5136663;27;20050;-87
2022/04/08 03:41:53;;;;;;;0.30;0.30;;;2.30;99.90;;;;;;5135884;27;20046;-88
2022/04/08 03:44:19;;;;;;;0.30;0.30;;;2.90;99.90;;;;;;5136682;27;20067;-89
2022/04/08 03:46:46;;;;;;;0.30;0.30;;;2.90;99.90;;;;;;5136279;27;20046;-90
2022/04/08 03:49:16;;;;;;;0.30;0.30;;;3.00;99.90;;;;;;5136835;27;20053;-88
2022/04/08 03:51:43;;;;;;;0.30;0.30;;;3.00;99.90;;;;;;5102059;27;20050;-88
2022/04/08 03:54:09;;;;;;;0.20;0.20;;;3.10;99.90;;;;;;5136086;27;20486;-87
2022/04/08 03:56:35;;;;;;;0.30;0.30;;;4.10;99.90;;;;;;5118427;27;20098;-88
2022/04/08 03:59:01;;;;;;;0.30;0.30;;;3.10;99.90;;;;;;5114350;27;20058;-87
2022/04/08 04:01:27;;;;;;;0.30;0.30;;;4.00;99.90;;;;;;5098793;27;20502;-87
2022/04/08 04:03:53;;;;;;;0.20;0.20;;;4.20;99.90;;;;;;5081690;27;20058;-87
2022/04/08 04:06:18;;;;;;;0.40;0.40;;;2.80;99.90;;;;;;5081205;27;20047;-87
2022/04/08 04:08:44;;;;;;;0.30;0.30;;;4.30;99.90;;;;;;5081321;27;20058;-88
2022/04/08 04:11:17;;;;;;;0.30;0.30;;;2.70;99.90;;;;;;5098654;27;20174;-89
2022/04/08 04:13:43;;;;;;;0.30;0.30;;;2.80;99.90;;;;;;5113284;27;20063;-88
2022/04/08 04:16:09;;;;;;;0.20;0.20;;;3.50;99.90;;;;;;5130071;27;20043;-89
2022/04/08 04:18:35;;;;;;;0.20;0.20;;;3.80;99.90;;;;;;5127899;27;20039;-89
2022/04/08 04:21:01;;;;;;;0.30;0.30;;;2.80;99.90;;;;;;5099737;27;20588;-90
2022/04/08 04:23:26;;;;;;;0.30;0.30;;;3.20;99.90;;;;;;5136050;27;20059;-87
2022/04/08 04:25:52;;;;;;;0.30;0.30;;;3.20;99.90;;;;;;5101512;27;20062;-90
2022/04/08 04:28:18;;;;;;;0.30;0.30;;;2.90;99.90;;;;;;5117968;27;20114;-89
2022/04/08 04:30:44;;;;;;;0.30;0.30;;;2.90;99.90;;;;;;5135710;27;20137;-89
2022/04/08 04:33:10;;;;;;;0.30;0.30;;;3.10;99.90;;;;;;5119112;27;20042;-87
2022/04/08 04:35:36;;;;;;;0.30;0.30;;;4.00;99.90;;;;;;5118119;27;20426;-90
2022/04/08 04:38:02;;;;;;;;;;;4.20;99.90;;;;;;5119423;27;20046;-88
2022/04/08 04:40:28;;;;;;;0.30;0.30;;;3.00;99.90;;;;;;5135881;27;19919;-89
2022/04/08 04:42:55;;;;;;;;;;;3.30;99.90;;;;;;5134770;27;20099;-89
2022/04/08 04:45:24;;;;;;;0.30;0.30;;;3.10;99.90;;;;;;5118823;27;20038;-88
2022/04/08 04:47:50;;;;;;;0.20;0.20;;;3.10;99.90;;;;;;5118811;27;20158;-89
2022/04/08 04:50:16;;;;;;;0.30;0.30;;;3.20;99.90;;;;;;5118185;27;20134;-91
2022/04/08 04:52:42;;;;;;;0.30;0.30;;;3.20;99.90;;;;;;5133740;27;20117;-88
2022/04/08 04:55:08;;;;;;;0.30;0.30;;;4.90;99.90;;;;;;5118725;27;20103;-89
2022/04/08 04:57:34;;;;;;;0.30;0.30;;;3.20;99.90;;;;;;5116839;27;20047;-88
2022/04/08 05:00:01;;;;;;;0.30;0.30;;;3.50;99.90;;;;;;5135670;27;20042;-89
2022/04/08 05:02:26;;;;;;;0.30;0.30;;;4.20;99.90;;;;;;5118578;27;20050;-90
2022/04/08 05:04:52;;;;;;;0.30;0.30;;;3.10;99.90;;;;;;5117346;27;20094;-90
2022/04/08 05:07:18;;;;;;;0.30;0.30;;;3.60;99.90;;;;;;5117120;27;20498;-90
2022/04/08 05:09:43;;;;;;;0.30;0.30;;;3.20;99.90;;;;;;5117678;27;20483;-88
2022/04/08 05:12:09;;;;;;;0.30;0.30;;;2.90;99.90;;;;;;5099717;27;20047;-88
2022/04/08 05:14:36;;;;;;;;;;;2.90;99.90;;;;;;5096616;27;20114;-87
2022/04/08 05:17:01;;;;;;;0.30;0.30;;;2.90;99.90;;;;;;5080040;27;19923;-88
2022/04/08 05:19:27;;;;;;;0.38;0.38;;;3.00;99.90;;;;;;5114177;27;20047;-88
2022/04/08 05:21:53;;;;;;;0.30;0.30;;;3.00;99.90;;;;;;5128706;27;20057;-88
2022/04/08 05:24:19;;;;;;;0.20;0.20;;;3.00;99.90;;;;;;5134537;27;20055;-87
2022/04/08 05:26:45;;;;;;;;;;;3.00;99.90;;;;;;5099881;27;20094;-86
2022/04/08 05:29:11;;;;;;;0.20;0.20;;;4.10;99.90;;;;;;5133468;27;20009;-88
2022/04/08 05:31:36;;;;;;;0.30;0.30;;;3.10;99.90;;;;;;5133729;27;20088;-86
2022/04/08 05:34:02;;;;;;;0.30;0.30;;;3.10;99.90;;;;;;5134312;27;20039;-87
2022/04/08 05:36:28;;;;;;;0.30;0.30;;;3.50;99.90;;;;;;5133681;27;20069;-88
2022/04/08 05:38:54;;;;;;;0.30;0.30;;;3.40;99.90;;;;;;5116628;27;20050;-88
2022/04/08 05:41:20;;;;;;;0.30;0.30;;;3.20;99.90;;;;;;5107523;27;20058;-90
2022/04/08 05:43:46;;;;;;;0.30;0.30;;;3.30;99.90;;;;;;5125392;27;20054;-91
2022/04/08 05:46:13;;;;;;;0.30;0.30;;;4.40;99.90;;;;;;5100800;27;20086;-90
2022/04/08 05:48:38;;;;;;;0.30;0.30;;;3.40;99.90;;;;;;5108381;28;20051;-88
2022/04/08 05:51:04;;;;;;;0.30;0.30;;;3.60;99.90;;;;;;5102268;27;20037;-91
2022/04/08 05:53:30;;;;;;;0.30;0.30;;;3.50;99.90;;;;;;5101828;27;20131;-92
2022/04/08 05:55:57;;;;;;;0.20;0.20;;;3.50;99.90;;;;;;5109910;27;20043;-88
2022/04/08 05:58:22;;;;;;;0.30;0.30;;;4.60;99.90;;;;;;5113042;27;20035;-89
2022/04/08 06:00:48;;;;;;;0.30;0.30;;;3.60;99.90;;;;;;5097218;27;20084;-91
2022/04/08 06:03:14;;;;;;;0.30;0.30;;;3.60;99.90;;;;;;5099788;27;20109;-92
2022/04/08 06:05:40;;;;;;;0.30;0.30;;;4.10;99.90;;;;;;5117471;27;20047;-91
2022/04/08 06:08:06;;;;;;;0.30;0.30;;;3.40;99.90;;;;;;5135295;27;20042;-91
2022/04/08 06:10:32;;;;;;;0.30;0.30;;;3.30;99.90;;;;;;5135119;27;20051;-89
2022/04/08 06:12:57;;;;;;;0.30;0.30;;;3.30;99.90;;;;;;5132974;27;20046;-92
2022/04/08 06:15:25;;;;;;;0.30;0.30;;;3.20;99.90;;;;;;5118336;27;20091;-92
2022/04/08 06:17:51;;;;;;;0.20;0.20;;;3.40;99.90;;;;;;5114394;28;20074;-91
2022/04/08 06:20:18;;;;;;;0.30;0.30;;;3.30;99.90;;;;;;5114125;28;20043;-90
2022/04/08 06:22:45;;;;;;;0.30;0.30;;;4.20;99.90;;;;;;5120739;27;20057;-90
2022/04/08 06:25:12;;;;;;;0.30;0.30;;;3.40;99.90;;;;;;5135092;27;20050;-88
2022/04/08 06:27:38;;;;;;;0.20;0.20;;;3.80;99.90;;;;;;5133722;27;20114;-88
2022/04/08 06:30:09;;;;;;;0.30;0.30;;;3.40;99.90;;;;;;5117584;27;20042;-87
2022/04/08 06:32:35;;;;;;;0.30;0.30;;;3.20;99.90;;;;;;5121390;27;20045;-89
2022/04/08 06:35:01;;;;;;;0.25;0.25;;;4.10;99.90;;;;;;5087598;27;20054;-94
2022/04/08 06:37:28;;;;;;;0.30;0.30;;;3.00;99.90;;;;;;5139428;27;20134;-90
2022/04/08 06:39:54;;;;;;;0.30;0.30;;;3.00;99.90;;;;;;5121084;27;20514;-90
2022/04/08 06:42:21;;;;;;;0.30;0.30;;;3.70;99.90;;;;;;5104091;27;20082;-90
2022/04/08 06:44:47;;;;;;;0.30;0.30;;;2.90;99.90;;;;;;5138813;27;20042;-91
2022/04/08 06:47:12;;;;;;;0.30;0.30;;;3.60;99.90;;;;;;5138627;27;20046;-90
2022/04/08 06:49:43;;;;;;;0.30;0.30;;;2.90;99.90;;;;;;5105852;27;20039;-90
2022/04/08 06:52:09;;;;;;;0.30;0.30;;;3.50;99.90;;;;;;5090003;27;20472;-92
2022/04/08 06:54:35;;;;;;;;;;;2.80;99.90;;;;;;5106557;27;20046;-93
2022/04/08 06:57:01;;;;;;;0.30;0.30;;;3.20;99.90;;;;;;5138510;27;19963;-91
2022/04/08 06:59:27;;;;;;;0.30;0.30;;;2.90;99.90;;;;;;5105288;27;20039;-93
2022/04/08 07:01:52;;;;;;;0.30;0.30;;;3.00;99.90;;;;;;5118657;27;20038;-95
2022/04/08 07:04:18;;;;;;;0.30;0.30;;;4.70;99.90;;;;;;5113692;27;20425;-92
2022/04/08 07:06:44;;;;;;;0.30;0.30;;;4.60;99.90;;;;;;5098752;27;20042;-94
2022/04/08 07:09:10;;;;;;;0.30;0.30;;;3.20;99.90;;;;;;5124592;27;20047;-94
2022/04/08 07:11:35;;;;;;;0.30;0.30;;;3.20;99.90;;;;;;5112443;27;20046;-92
2022/04/08 07:14:04;;;;;;;0.30;0.30;;;4.90;99.90;;;;;;5122824;27;20056;-96
2022/04/08 07:16:32;;;;;;;0.30;0.30;;;3.60;99.90;;;;;;5134785;27;20055;-94
2022/04/08 07:18:58;;;;;;;0.30;0.30;;;4.70;99.90;;;;;;5136777;27;20092;-93
2022/04/08 07:21:24;;;;;;;0.40;0.40;;;4.50;99.90;;;;;;5119683;27;20492;-94
2022/04/08 07:23:49;;;;;;;0.30;0.30;;;4.50;99.90;;;;;;5121054;27;20047;-93
2022/04/08 07:26:15;;;;;;;0.30;0.30;;;4.20;99.90;;;;;;5097169;27;20050;-95
2022/04/08 07:28:41;;;;;;;0.30;0.30;;;3.20;99.90;;;;;;5112625;27;20078;-92
2022/04/08 07:31:08;;;;;;;0.30;0.30;;;4.80;99.90;;;;;;5104580;27;20053;-92
2022/04/08 07:33:33;;;;;;;0.30;0.30;;;4.60;99.90;;;;;;5113789;27;20047;-93
2022/04/08 07:35:59;;;;;;;0.30;0.30;;;4.70;99.90;;;;;;5120947;27;20052;-94
2022/04/08 07:38:25;;;;;;;0.30;0.30;;;5.10;99.90;;;;;;5121611;27;20058;-93
2022/04/08 07:40:51;;;;;;;0.30;0.30;;;4.60;99.90;;;;;;5118596;27;20051;-94
2022/04/08 07:43:17;;;;;;;0.30;0.30;;;4.70;99.90;;;;;;5109875;27;20076;-93
2022/04/08 07:45:43;;;;;;;0.30;0.30;;;3.90;99.90;;;;;;5116152;27;20039;-90
2022/04/08 07:48:09;;;;;;;0.30;0.30;;;3.90;99.90;;;;;;5101901;27;20078;-92
2022/04/08 07:50:37;;;;;;;0.30;0.30;;;5.10;99.90;;;;;;5085003;27;20081;-92
2022/04/08 07:53:04;;;;;;;0.30;0.30;;;4.20;99.90;;;;;;5133188;27;20070;-89
2022/04/08 07:55:30;;;;;;;0.30;0.30;;;4.40;99.90;;;;;;5113288;27;20120;-91
2022/04/08 07:57:55;;;;;;;0.30;0.30;;;5.30;99.90;;;;;;5128978;27;20086;-91
2022/04/08 08:00:25;;;;;;;0.30;0.30;;;6.30;99.90;;;;;;5102433;27;20107;-92
2022/04/08 08:02:51;;;;;;;0.30;0.30;;;6.40;99.90;;;;;;5131431;27;20066;-93
2022/04/08 08:05:20;;;;;;;0.30;0.30;;;5.20;99.90;;;;;;5091290;27;20115;-93
2022/04/08 08:07:48;;;;;;;0.20;0.20;;;5.30;99.90;;;;;;5133742;27;20043;-88
2022/04/08 08:10:16;;;;;;;0.20;0.20;;;5.20;99.90;;;;;;5119503;27;20099;-94
2022/04/08 08:12:41;;;;;;;0.30;0.30;;;5.30;99.90;;;;;;5113269;27;20042;-94
2022/04/08 08:15:08;;;;;;;0.28;0.28;;;5.40;99.90;;;;;;5115618;27;20099;-95
2022/04/08 08:17:34;;;;;;;0.30;0.30;;;5.40;99.90;;;;;;5085351;27;20175;-92
2022/04/08 08:19:59;;;;;;;0.40;0.40;;;5.20;99.90;;;;;;5100996;27;20133;-88
2022/04/08 08:22:25;;;;;;;0.22;0.22;;;6.10;99.90;;;;;;5091904;27;20034;-90
2022/04/08 08:24:51;;;;;;;0.30;0.30;;;5.60;99.90;;;;;;5113163;27;20050;-91
2022/04/08 08:27:17;;;;;;;0.30;0.30;;;5.30;99.90;;;;;;5116245;27;20050;-89
2022/04/08 08:29:43;;;;;;;0.30;0.30;;;4.60;99.90;;;;;;5118346;27;20482;-92
2022/04/08 08:32:08;;;;;;;0.30;0.30;;;4.50;99.90;;;;;;5117967;27;20251;-94
2022/04/08 08:34:34;;;;;;;0.30;0.30;;;4.40;99.90;;;;;;5101662;27;20035;-93
2022/04/08 08:37:00;;;;;;;0.30;0.30;;;4.40;99.90;;;;;;5094903;27;20054;-90
2022/04/08 08:39:26;;;;;;;0.30;0.30;;;5.80;99.90;;;;;;5098432;27;20039;-93
2022/04/08 08:41:54;;;;;;;0.30;0.30;;;4.20;99.90;;;;;;5100395;27;20038;-90
2022/04/08 08:44:19;;;;;;;0.30;0.30;;;4.30;99.90;;;;;;5116962;27;20051;-92
2022/04/08 08:46:47;;;;;;;0.30;0.30;;;4.40;99.90;;;;;;5109865;27;20049;-93
2022/04/08 08:49:14;;;;;;;0.30;0.30;;;4.60;99.90;;;;;;5113243;27;20051;-93
2022/04/08 08:51:46;;;;;;;0.20;0.20;;;4.60;99.90;;;;;;5097731;27;20054;-93
2022/04/08 08:54:11;;;;;;;0.20;0.20;;;6.20;99.90;;;;;;5115637;27;20047;-93
2022/04/08 08:56:37;;;;;;;0.30;0.30;;;4.70;99.90;;;;;;5119998;27;20133;-92
2022/04/08 08:59:03;;;;;;;0.30;0.30;;;5.20;99.90;;;;;;5135651;27;20069;-93
2022/04/08 09:01:28;;;;;;;0.40;0.40;;;6.30;99.90;;;;;;5102582;27;20050;-93
2022/04/08 09:03:55;;;;;;;11.50;4.30;;;5.00;99.90;;;;;;5119531;27;20046;-92
2022/04/08 09:06:21;;;;;;;12.43;4.55;;;5.10;99.90;;;;;;5101731;27;20043;-94
2022/04/08 09:08:58;;;;;;;6.03;3.05;;;5.10;99.90;;;;;;5099457;27;20038;-92
2022/04/08 09:11:27;;;;;;;6.88;2.80;;;6.50;99.90;;;;;;5128566;27;20049;-91
2022/04/08 09:14:00;;;;;;;11.25;3.70;;;5.30;99.90;;;;;;5113384;27;20046;-89
2022/04/08 09:16:35;;;;;;;5.35;2.50;;;5.30;99.90;;;;;;5116968;27;20138;-91
2022/04/08 09:19:13;;;;;;;10.00;2.92;;;5.20;99.90;;;;;;5128558;27;20113;-92
2022/04/08 09:21:39;;;;;;;6.15;2.40;;;5.30;99.90;;;;;;5150731;27;20046;-94
2022/04/08 09:24:06;;;;;;;5.95;2.58;;;6.60;99.90;;;;;;5110116;27;20051;-94
2022/04/08 09:26:36;;;;;;;8.98;2.22;;;5.40;99.90;;;;;;5123569;27;20130;-93
2022/04/08 09:29:03;;;;;;;8.15;2.63;;;5.50;99.90;;;;;;5095425;27;20056;-90
2022/04/08 09:31:30;;;;;;;5.88;2.40;;;6.80;99.90;;;;;;5132101;27;20559;-88
2022/04/08 09:33:55;;;;;;;6.93;2.55;;;6.30;99.90;;;;;;5129462;27;20057;-92
2022/04/08 09:36:33;;;;;;;11.07;3.38;;;5.60;99.90;;;;;;5114757;27;20042;-89
2022/04/08 09:38:59;;;;;;;5.55;2.00;;;5.70;99.90;;;;;;5096557;27;20051;-89
2022/04/08 09:41:39;;;;;;;;;;;6.70;99.90;;;;;;5130802;27;20534;-90
2022/04/08 09:44:08;;;;;;;5.05;2.10;;;5.80;99.90;;;;;;5114233;27;19930;-90
2022/04/08 09:46:34;;;;;;;8.27;2.10;;;5.80;99.90;;;;;;5124783;27;20130;-91
2022/04/08 09:48:59;;;;;;;12.30;2.72;;;5.90;99.90;;;;;;5099610;27;20127;-91
2022/04/08 09:51:27;;;;;;;9.70;3.10;;;6.00;99.90;;;;;;5132619;27;20053;-91
2022/04/08 09:53:57;;;;;;;10.45;3.05;;;6.10;99.90;;;;;;5130228;27;20042;-87
2022/04/08 09:56:24;;;;;;;13.18;4.05;;;6.30;99.90;;;;;;5126945;27;20049;-91
2022/04/08 09:58:56;;;;;;;8.77;3.58;;;7.60;99.90;;;;;;5121861;27;20039;-89
2022/04/08 10:01:23;;;;;;;13.85;3.90;;;6.50;99.90;;;;;;5128923;27;20039;-91
2022/04/08 10:03:50;;;;;;;10.95;3.58;;;6.60;99.90;;;;;;5126282;27;20095;-92
2022/04/08 10:06:16;;;;;;;12.20;3.92;;;7.00;99.90;;;;;;5124182;27;20080;-88
2022/04/08 10:08:43;;;;;;;12.15;3.47;;;6.80;99.90;;;;;;5097137;27;20047;-89
2022/04/08 10:11:12;;;;;;;;;;;7.00;99.90;;;;;;5087067;27;20039;-91
2022/04/08 10:13:58;;;;;;;10.98;3.25;;;7.50;99.90;;;;;;5112248;27;19964;-89
2022/04/08 10:16:24;;;;;;;11.68;3.70;;;7.20;99.90;;;;;;5130952;27;20088;-90
2022/04/08 10:18:52;;;;;;;6.95;2.63;;;7.40;99.90;;;;;;5124346;27;20102;-92
2022/04/08 10:21:18;;;;;;;9.98;3.42;;;7.80;99.90;;;;;;5108839;27;20045;-89
2022/04/08 10:23:55;;;;;;;;;;;7.20;99.90;;;;;;5096333;27;20096;-90
2022/04/08 10:26:26;;;;;;;6.88;2.60;;;7.30;99.90;;;;;;5122303;27;19945;-91
2022/04/08 10:28:55;;;;;;;10.20;3.85;;;7.40;99.90;;;;;;5130205;27;20100;-90
2022/04/08 10:31:23;;;;;;;10.23;2.70;;;7.40;99.90;;;;;;5096672;28;20054;-90
2022/04/08 10:33:56;;;;;;;10.88;2.50;;;7.40;99.90;;;;;;5114322;28;20104;-91
2022/04/08 10:36:40;;;;;;;6.95;2.78;;;7.50;99.90;;;;;;5114866;27;20054;-91
2022/04/08 10:39:14;;;;;;;4.80;2.38;;;7.40;99.90;;;;;;5112830;28;20047;-91
2022/04/08 10:41:55;;;;;;;5.95;2.40;;;7.50;99.90;;;;;;5097729;28;20710;-88
2022/04/08 10:44:32;;;;;;;11.95;2.80;;;7.50;99.90;;;;;;5095739;28;20055;-91
2022/04/08 10:47:08;;;;;;;8.15;2.00;;;7.60;99.90;;;;;;5128057;27;20511;-86
2022/04/08 10:49:45;;;;;;;9.88;2.08;;;7.70;99.90;;;;;;5117824;27;20050;-90
2022/04/08 10:52:15;;;;;;;6.40;1.80;;;7.90;99.90;;;;;;5118000;27;20047;-93
2022/04/08 10:54:41;;;;;;;6.38;1.77;;;8.00;99.90;;;;;;5096776;28;20583;-91
2022/04/08 10:57:07;;;;;;;9.38;1.38;;;8.10;99.90;;;;;;5113365;28;20104;-91
2022/04/08 10:59:33;;;;;;;5.60;1.38;;;8.20;99.90;;;;;;5122297;28;20404;-92
2022/04/08 11:02:05;;;;;;;7.60;1.58;;;8.50;99.90;;;;;;5122167;27;20078;-88
2022/04/08 11:04:31;;;;;;;6.50;1.40;;;8.30;99.90;;;;;;5134982;27;20042;-93
2022/04/08 11:07:05;;;;;;;8.75;1.60;;;8.40;99.90;;;;;;5133059;27;20054;-91
2022/04/08 11:09:31;;;;;;;6.43;2.08;;;8.30;99.90;;;;;;5134768;27;20061;-94
2022/04/08 11:11:57;;;;;;;6.07;1.85;;;8.60;99.90;;;;;;5099066;27;20054;-93
2022/04/08 11:14:23;;;;;;;7.10;1.42;;;8.10;99.90;;;;;;5116053;27;20057;-93
2022/04/08 11:16:52;;;;;;;6.45;2.00;;;7.70;99.90;;;;;;5121413;27;20533;-92
2022/04/08 11:19:21;;;;;;;6.20;1.55;;;7.60;99.90;;;;;;5131501;27;20087;-92
2022/04/08 11:21:48;;;;;;;5.70;1.83;;;8.10;99.90;;;;;;5119141;27;20049;-93
2022/04/08 11:24:15;;;;;;;13.98;2.22;;;7.40;99.90;;;;;;5117980;27;20103;-92
2022/04/08 11:26:43;;;;;;;5.93;2.70;;;7.20;99.90;;;;;;5085386;27;20042;-88
2022/04/08 11:29:21;;;;;;;3.97;1.85;;;7.90;99.90;;;;;;5134809;27;20043;-88
2022/04/08 11:31:49;;;;;;;4.47;1.90;;;7.10;99.90;;;;;;5130859;27;20121;-90
2022/04/08 11:34:15;;;;;;;8.27;2.47;;;7.10;99.90;;;;;;5136833;27;20066;-89
2022/04/08 11:36:41;;;;;;;;;;;6.80;99.90;;;;;;5138150;27;20049;-89
2022/04/08 11:39:08;;;;;;;10.25;2.10;;;7.40;99.90;;;;;;5137546;27;20010;-92
2022/04/08 11:41:35;;;;;;;9.40;2.30;;;6.80;99.90;;;;;;5120370;27;20061;-92
2022/04/08 11:44:05;;;;;;;6.53;2.00;;;6.80;99.90;;;;;;5136713;27;20047;-87
2022/04/08 11:46:31;;;;;;;9.00;2.60;;;7.60;99.90;;;;;;5138077;27;20057;-92
2022/04/08 11:48:56;;;;;;;8.48;2.33;;;7.50;99.90;;;;;;5121047;27;20055;-90
2022/04/08 11:51:22;;;;;;;8.85;2.20;;;7.10;99.90;;;;;;5117801;27;20039;-90
2022/04/08 11:53:53;;;;;;;7.90;2.20;;;7.30;99.90;;;;;;5137296;27;20468;-92
2022/04/08 11:56:25;;;;;;;11.43;2.50;;;7.50;99.90;;;;;;5137306;27;20553;-92
2022/04/08 11:58:55;;;;;;;8.68;2.17;;;7.70;99.90;;;;;;5136570;27;20049;-91
2022/04/08 12:01:21;;;;;;;11.77;2.40;;;8.30;99.90;;;;;;5103098;27;20042;-89
2022/04/08 12:03:51;;;;;;;;;;;8.20;99.90;;;;;;5137697;27;20039;-91
2022/04/08 12:06:18;;;;;;;7.60;1.88;;;8.10;99.90;;;;;;5136864;27;20390;-92
2022/04/08 12:08:46;;;;;;;7.15;2.15;;;9.10;99.90;;;;;;5120283;27;20057;-91
2022/04/08 12:11:12;;;;;;;7.13;2.25;;;8.10;99.90;;;;;;5119904;27;20395;-91
2022/04/08 12:13:43;;;;;;;4.88;2.15;;;8.00;99.90;;;;;;5135768;27;20055;-92
2022/04/08 12:16:11;;;;;;;8.38;2.15;;;8.30;99.90;;;;;;5120061;27;20125;-90
2022/04/08 12:18:51;;;;;;;8.18;1.92;;;8.00;99.90;;;;;;5137594;27;20043;-90
2022/04/08 12:21:22;;;;;;;8.15;2.03;;;8.20;99.90;;;;;;5119322;27;20046;-93
2022/04/08 12:23:49;;;;;;;6.43;2.08;;;8.50;99.90;;;;;;5136554;27;20049;-91
2022/04/08 12:26:16;;;;;;;9.27;2.25;;;8.80;99.90;;;;;;5136465;27;20050;-90
2022/04/08 12:28:42;;;;;;;6.72;1.90;;;9.10;99.90;;;;;;5118378;27;20055;-91
2022/04/08 12:31:12;;;;;;;5.63;1.60;;;9.30;99.90;;;;;;5119226;27;20053;-88
2022/04/08 12:33:38;;;;;;;3.25;1.40;;;9.00;99.90;;;;;;5116972;27;20081;-88
2022/04/08 12:36:09;;;;;;;4.07;1.80;;;8.50;99.90;;;;;;5099387;27;20483;-87
2022/04/08 12:38:36;;;;;;;3.10;1.50;;;8.10;99.90;;;;;;5110434;27;20117;-93
2022/04/08 12:41:02;;;;;;;3.53;1.55;;;7.80;99.90;;;;;;5136719;27;20103;-91
2022/04/08 12:43:28;;;;;;;2.72;1.25;;;7.60;99.90;;;;;;5100746;27;20042;-92
2022/04/08 12:45:54;;;;;;;3.40;1.30;;;7.40;99.90;;;;;;5094274;27;20070;-93
2022/04/08 12:48:19;;;;;;;2.95;1.50;;;7.50;99.90;;;;;;5116287;27;20070;-94
2022/04/08 12:50:45;;;;;;;3.63;1.40;;;9.00;99.90;;;;;;5117728;27;20425;-92
2022/04/08 12:53:11;;;;;;;;;;;7.70;99.90;;;;;;5132929;27;20471;-95
2022/04/08 12:55:37;;;;;;;5.25;1.55;;;7.90;99.90;;;;;;5112910;27;19962;-94
2022/04/08 12:58:02;;;;;;;3.33;1.50;;;8.40;99.90;;;;;;5091838;27;20051;-92
2022/04/08 13:00:29;;;;;;;5.28;1.45;;;8.90;99.90;;;;;;5128031;27;20179;-91